createdAt,value
2018-08-31T00:00:54.763Z,7.47
2018-08-31T00:04:34.391Z,8.27
2018-08-31T00:07:14.843Z,7.77
2018-08-31T00:10:59.150Z,8.57
2018-08-31T00:13:27.723Z,10.73
2018-08-31T00:15:56.256Z,6.93
2018-08-31T00:18:24.675Z,7.40
2018-08-31T00:20:53.143Z,7.83
2018-08-31T00:23:36.385Z,11.67
2018-08-31T00:26:17.217Z,9.00
2018-08-31T00:29:44.783Z,7.67
2018-08-31T00:32:24.485Z,8.67
2018-08-31T00:36:08.176Z,8.33
2018-08-31T00:38:45.636Z,6.67
2018-08-31T00:43:29.114Z,6.27
2018-08-31T00:45:57.623Z,6.70
2018-08-31T00:48:26.057Z,11.13
2018-08-31T00:50:55.497Z,5.77
2018-08-31T00:53:23.913Z,9.47
2018-08-31T00:55:52.348Z,8.40
2018-08-31T00:58:20.832Z,6.70
2018-08-31T01:00:49.268Z,6.43
2018-08-31T01:03:17.740Z,9.37
2018-08-31T01:05:46.187Z,10.43
2018-08-31T01:08:14.658Z,10.27
2018-08-31T01:10:43.119Z,9.47
2018-08-31T01:13:11.551Z,11.63
2018-08-31T01:15:40.003Z,7.67
2018-08-31T01:18:08.452Z,8.00
2018-08-31T01:20:36.909Z,9.43
2018-08-31T01:23:05.585Z,9.77
2018-08-31T01:25:34.486Z,9.93
2018-08-31T01:28:03.572Z,6.13
2018-08-31T01:30:32.014Z,5.57
2018-08-31T01:33:00.509Z,9.63
2018-08-31T01:35:28.938Z,12.10
2018-08-31T01:37:57.465Z,6.83
2018-08-31T01:40:26.141Z,12.80
2018-08-31T01:42:54.633Z,9.33
2018-08-31T01:45:23.111Z,7.23
2018-08-31T01:47:51.609Z,7.40
2018-08-31T01:50:20.046Z,14.33
2018-08-31T01:52:48.504Z,7.23
2018-08-31T01:55:16.969Z,7.97
2018-08-31T01:57:45.474Z,7.60
2018-08-31T02:00:13.900Z,10.27
2018-08-31T02:02:42.385Z,14.27
2018-08-31T02:05:10.856Z,6.77
2018-08-31T02:07:39.323Z,11.53
2018-08-31T02:10:07.848Z,5.13
2018-08-31T02:12:36.325Z,7.50
2018-08-31T02:15:04.817Z,10.10
2018-08-31T02:17:33.327Z,8.30
2018-08-31T02:20:01.768Z,9.73
2018-08-31T02:22:30.355Z,7.17
2018-08-31T02:24:58.825Z,7.63
2018-08-31T02:27:27.460Z,9.57
2018-08-31T02:29:55.901Z,9.33
2018-08-31T02:32:24.872Z,9.27
2018-08-31T02:34:53.887Z,8.23
2018-08-31T02:37:22.928Z,8.83
2018-08-31T02:39:51.492Z,9.63
2018-08-31T02:42:19.981Z,11.13
2018-08-31T02:44:50.167Z,8.87
2018-08-31T02:47:18.613Z,7.10
2018-08-31T02:49:47.115Z,10.00
2018-08-31T02:52:15.580Z,16.73
2018-08-31T02:54:44.165Z,11.53
2018-08-31T02:57:12.615Z,6.80
2018-08-31T02:59:41.508Z,7.33
2018-08-31T03:02:10.078Z,10.90
2018-08-31T03:04:38.573Z,10.60
2018-08-31T03:07:07.300Z,12.00
2018-08-31T03:09:35.941Z,7.30
2018-08-31T03:12:04.555Z,10.60
2018-08-31T03:14:32.952Z,9.57
2018-08-31T03:17:01.420Z,12.77
2018-08-31T03:19:30.045Z,7.60
2018-08-31T03:22:05.140Z,9.07
2018-08-31T03:24:33.684Z,12.97
2018-08-31T03:27:02.363Z,9.00
2018-08-31T03:29:30.787Z,10.30
2018-08-31T03:31:59.267Z,11.13
2018-08-31T03:34:27.744Z,11.03
2018-08-31T03:36:56.395Z,7.20
2018-08-31T03:39:24.749Z,11.27
2018-08-31T03:41:53.213Z,6.87
2018-08-31T03:44:21.669Z,9.53
2018-08-31T03:46:50.245Z,9.67
2018-08-31T03:49:18.733Z,12.10
2018-08-31T03:51:47.179Z,8.90
2018-08-31T03:54:15.862Z,12.00
2018-08-31T03:56:44.372Z,10.40
2018-08-31T03:59:13.037Z,8.97
2018-08-31T04:01:41.747Z,10.10
2018-08-31T04:04:10.211Z,9.77
2018-08-31T04:06:38.875Z,10.43
2018-08-31T04:09:08.369Z,10.37
2018-08-31T04:11:36.784Z,10.77
2018-08-31T04:14:05.557Z,11.47
2018-08-31T04:16:34.102Z,14.37
2018-08-31T04:19:06.881Z,13.23
2018-08-31T04:21:36.197Z,4.63
2018-08-31T04:24:05.339Z,13.97
2018-08-31T04:26:34.445Z,7.80
2018-08-31T04:29:02.860Z,10.23
2018-08-31T04:31:31.416Z,10.57
2018-08-31T04:34:00.414Z,13.10
2018-08-31T04:36:29.229Z,10.20
2018-08-31T04:38:57.885Z,8.70
2018-08-31T04:41:26.731Z,11.90
2018-08-31T04:43:55.343Z,7.93
2018-08-31T04:46:24.127Z,10.13
2018-08-31T04:48:52.581Z,14.10
2018-08-31T04:51:21.052Z,15.47
2018-08-31T04:53:49.506Z,10.20
2018-08-31T04:56:19.452Z,14.57
2018-08-31T04:58:47.944Z,9.60
2018-08-31T05:01:16.476Z,13.43
2018-08-31T05:03:45.028Z,10.70
2018-08-31T05:06:13.471Z,9.40
2018-08-31T05:08:42.027Z,10.87
2018-08-31T05:11:10.507Z,13.90
2018-08-31T05:13:39.329Z,10.73
2018-08-31T05:16:07.963Z,10.40
2018-08-31T05:18:36.342Z,8.30
2018-08-31T05:21:05.118Z,11.43
2018-08-31T05:23:33.578Z,14.63
2018-08-31T05:26:02.328Z,10.77
2018-08-31T05:28:30.800Z,12.60
2018-08-31T05:30:59.278Z,10.50
2018-08-31T05:33:27.836Z,12.07
2018-08-31T05:35:56.319Z,14.37
2018-08-31T05:38:24.821Z,13.43
2018-08-31T05:40:53.276Z,9.03
2018-08-31T05:43:21.762Z,10.43
2018-08-31T05:45:50.180Z,13.27
2018-08-31T05:48:18.643Z,12.87
2018-08-31T05:50:47.079Z,15.17
2018-08-31T05:53:15.500Z,7.17
2018-08-31T05:55:43.994Z,9.33
2018-08-31T05:58:12.483Z,11.87
2018-08-31T06:00:40.991Z,14.23
2018-08-31T06:03:09.418Z,12.20
2018-08-31T06:05:37.908Z,9.73
2018-08-31T06:08:06.372Z,10.70
2018-08-31T06:10:34.895Z,12.30
2018-08-31T06:13:03.540Z,13.67
2018-08-31T06:15:32.091Z,7.23
2018-08-31T06:18:00.579Z,12.10
2018-08-31T06:20:29.248Z,11.97
2018-08-31T06:22:57.696Z,8.23
2018-08-31T06:25:26.454Z,11.37
2018-08-31T06:27:55.296Z,11.03
2018-08-31T06:30:24.048Z,10.90
2018-08-31T06:32:52.707Z,11.70
2018-08-31T06:35:21.248Z,8.27
2018-08-31T06:37:49.783Z,11.60
2018-08-31T06:40:18.414Z,10.73
2018-08-31T06:42:46.968Z,7.00
2018-08-31T06:45:15.908Z,11.00
2018-08-31T06:47:44.491Z,8.97
2018-08-31T06:50:13.009Z,8.57
2018-08-31T06:52:41.488Z,9.27
2018-08-31T06:55:10.162Z,10.83
2018-08-31T06:57:38.717Z,7.13
2018-08-31T07:00:08.024Z,9.57
2018-08-31T07:02:36.762Z,11.53
2018-08-31T07:05:05.809Z,10.20
2018-08-31T07:07:36.236Z,12.80
2018-08-31T07:10:05.013Z,13.43
2018-08-31T07:12:33.641Z,11.87
2018-08-31T07:15:02.455Z,14.10
2018-08-31T07:17:31.115Z,8.87
2018-08-31T07:19:59.570Z,13.70
2018-08-31T07:22:28.142Z,16.57
2018-08-31T07:24:56.732Z,11.90
2018-08-31T07:27:25.330Z,7.93
2018-08-31T07:29:53.866Z,15.53
2018-08-31T07:32:22.326Z,8.70
2018-08-31T07:34:50.891Z,9.60
2018-08-31T07:37:19.568Z,9.47
2018-08-31T07:39:48.378Z,8.03
2018-08-31T07:42:17.143Z,8.03
2018-08-31T07:44:45.680Z,9.87
2018-08-31T07:47:14.101Z,9.43
2018-08-31T07:49:42.859Z,9.00
2018-08-31T07:52:11.307Z,10.40
2018-08-31T07:54:40.178Z,8.07
2018-08-31T07:57:08.687Z,9.03
2018-08-31T07:59:37.296Z,8.30
2018-08-31T08:02:06.145Z,9.33
2018-08-31T08:04:34.585Z,4.43
2018-08-31T08:07:03.147Z,6.50
2018-08-31T08:09:31.754Z,7.97
2018-08-31T08:12:00.296Z,8.73
2018-08-31T08:14:28.920Z,6.80
2018-08-31T08:16:57.746Z,7.43
2018-08-31T08:19:26.428Z,8.13
2018-08-31T08:21:55.026Z,7.40
2018-08-31T08:24:23.485Z,8.33
2018-08-31T08:26:52.183Z,7.87
2018-08-31T08:29:20.694Z,8.40
2018-08-31T08:31:49.219Z,8.00
2018-08-31T08:34:17.683Z,5.80
2018-08-31T08:36:46.292Z,5.87
2018-08-31T08:39:14.926Z,6.73
2018-08-31T08:41:43.480Z,11.03
2018-08-31T08:44:12.611Z,5.47
2018-08-31T08:46:41.435Z,6.40
2018-08-31T08:49:09.989Z,7.07
2018-08-31T08:51:38.676Z,4.13
2018-08-31T08:54:07.185Z,7.23
2018-08-31T08:56:35.834Z,4.13
2018-08-31T08:59:04.493Z,4.33
2018-08-31T09:01:32.990Z,4.03
2018-08-31T09:04:01.434Z,3.77
2018-08-31T09:06:29.986Z,3.33
2018-08-31T09:08:58.407Z,8.63
2018-08-31T09:11:26.880Z,6.50
2018-08-31T09:16:37.121Z,6.47
2018-08-31T09:19:05.848Z,4.87
2018-08-31T09:21:34.427Z,2.07
2018-08-31T09:24:03.524Z,5.13
2018-08-31T09:26:32.064Z,5.60
2018-08-31T09:29:00.613Z,3.63
2018-08-31T09:31:29.181Z,3.13
2018-08-31T09:33:57.675Z,6.03
2018-08-31T09:36:26.220Z,5.10
2018-08-31T09:38:54.727Z,2.43
2018-08-31T09:41:23.904Z,7.63
2018-08-31T09:43:52.415Z,7.23
2018-08-31T09:46:20.786Z,4.87
2018-08-31T09:48:49.334Z,4.07
2018-08-31T09:51:17.867Z,4.97
2018-08-31T09:53:46.389Z,3.10
2018-08-31T09:56:14.864Z,3.43
2018-08-31T09:58:43.425Z,4.57
2018-08-31T10:01:17.132Z,4.83
2018-08-31T10:03:45.609Z,6.37
2018-08-31T10:06:14.070Z,4.07
2018-08-31T10:08:42.620Z,4.53
2018-08-31T10:11:11.074Z,5.47
2018-08-31T10:13:39.573Z,2.40
2018-08-31T10:16:08.152Z,4.67
2018-08-31T10:18:36.716Z,5.47
2018-08-31T10:21:05.689Z,4.33
2018-08-31T10:23:34.230Z,3.73
2018-08-31T10:28:28.998Z,4.70
2018-08-31T10:30:57.577Z,5.07
2018-08-31T10:33:26.120Z,5.10
2018-08-31T10:35:54.659Z,6.23
2018-08-31T10:38:23.172Z,3.20
2018-08-31T10:40:51.668Z,5.93
2018-08-31T10:43:20.323Z,5.60
2018-08-31T10:45:48.830Z,4.23
2018-08-31T10:48:17.279Z,4.13
2018-08-31T10:50:45.852Z,7.13
2018-08-31T10:53:14.428Z,4.60
2018-08-31T10:55:42.912Z,3.27
2018-08-31T10:58:11.424Z,5.63
2018-08-31T11:00:39.905Z,9.93
2018-08-31T11:03:08.567Z,4.97
2018-08-31T11:05:37.126Z,4.63
2018-08-31T11:08:05.720Z,5.07
2018-08-31T11:10:34.396Z,6.33
2018-08-31T11:13:02.941Z,4.60
2018-08-31T11:15:31.709Z,3.33
2018-08-31T11:18:00.316Z,5.63
2018-08-31T11:20:28.927Z,4.33
2018-08-31T11:22:57.561Z,5.97
2018-08-31T11:25:26.116Z,9.33
2018-08-31T11:27:54.690Z,6.20
2018-08-31T11:30:23.214Z,5.73
2018-08-31T11:32:51.884Z,2.70
2018-08-31T11:35:20.480Z,6.00
2018-08-31T11:37:49.008Z,5.83
2018-08-31T11:40:17.506Z,5.07
2018-08-31T11:42:46.087Z,7.53
2018-08-31T11:45:14.608Z,3.20
2018-08-31T11:47:43.215Z,4.57
2018-08-31T11:50:12.763Z,2.93
2018-08-31T11:52:41.432Z,6.47
2018-08-31T11:55:09.978Z,3.53
2018-08-31T11:57:38.479Z,6.70
2018-08-31T12:00:07.076Z,7.87
2018-08-31T12:02:35.827Z,4.67
2018-08-31T12:05:04.341Z,7.33
2018-08-31T12:07:32.873Z,4.87
2018-08-31T12:10:01.423Z,4.77
2018-08-31T12:12:29.981Z,2.63
2018-08-31T12:14:58.635Z,3.03
2018-08-31T12:17:27.144Z,4.47
2018-08-31T12:19:55.677Z,4.23
2018-08-31T12:22:24.109Z,3.20
2018-08-31T12:24:52.617Z,4.13
2018-08-31T12:27:21.275Z,4.90
2018-08-31T12:29:50.243Z,5.43
2018-08-31T12:32:18.863Z,5.23
2018-08-31T12:34:47.329Z,4.27
2018-08-31T12:37:15.849Z,7.40
2018-08-31T12:39:44.521Z,3.87
2018-08-31T12:42:13.064Z,4.40
2018-08-31T12:44:41.676Z,4.87
2018-08-31T12:47:10.303Z,10.43
2018-08-31T12:49:40.377Z,3.13
2018-08-31T12:52:09.188Z,5.07
2018-08-31T12:54:37.708Z,5.20
2018-08-31T12:57:06.557Z,5.33
2018-08-31T12:59:35.387Z,4.77
2018-08-31T13:02:04.673Z,3.30
2018-08-31T13:04:33.424Z,7.23
2018-08-31T13:07:02.451Z,6.17
2018-08-31T13:09:31.072Z,6.77
2018-08-31T13:11:59.826Z,7.33
2018-08-31T13:14:28.604Z,4.23
2018-08-31T13:16:57.379Z,6.70
2018-08-31T13:19:26.289Z,4.70
2018-08-31T13:21:55.046Z,4.67
2018-08-31T13:24:23.692Z,4.10
2018-08-31T13:26:52.329Z,4.10
2018-08-31T13:29:21.086Z,5.53
2018-08-31T13:31:49.933Z,4.90
2018-08-31T13:34:18.622Z,3.60
2018-08-31T13:36:47.203Z,6.03
2018-08-31T13:39:15.997Z,3.13
2018-08-31T13:41:44.782Z,5.97
2018-08-31T13:44:13.901Z,8.33
2018-08-31T13:46:42.589Z,3.10
2018-08-31T13:49:11.239Z,7.60
2018-08-31T13:51:39.905Z,6.40
2018-08-31T13:54:08.525Z,4.50
2018-08-31T13:56:37.169Z,5.70
2018-08-31T13:59:06.011Z,4.83
2018-08-31T14:01:34.540Z,3.80
2018-08-31T14:04:03.111Z,3.50
2018-08-31T14:06:31.621Z,4.20
2018-08-31T14:09:00.412Z,3.43
2018-08-31T14:11:29.183Z,5.73
2018-08-31T14:14:04.446Z,6.77
2018-08-31T14:16:35.409Z,4.67
2018-08-31T14:19:05.559Z,3.47
2018-08-31T14:21:34.341Z,4.23
2018-08-31T14:24:02.872Z,4.47
2018-08-31T14:26:31.965Z,4.20
2018-08-31T14:29:00.614Z,5.53
2018-08-31T14:31:29.212Z,4.77
2018-08-31T14:33:58.029Z,2.30
2018-08-31T14:36:26.708Z,6.53
2018-08-31T14:38:55.651Z,5.93
2018-08-31T14:41:24.351Z,4.33
2018-08-31T14:43:53.532Z,3.87
2018-08-31T14:46:22.436Z,4.23
2018-08-31T14:48:51.274Z,5.63
2018-08-31T14:51:20.021Z,2.50
2018-08-31T14:53:48.711Z,3.43
2018-08-31T14:56:17.759Z,4.97
2018-08-31T14:58:46.396Z,4.17
2018-08-31T15:01:14.978Z,5.63
2018-08-31T15:03:43.533Z,3.30
2018-08-31T15:06:12.154Z,6.00
2018-08-31T15:08:40.692Z,5.73
2018-08-31T15:11:09.394Z,3.67
2018-08-31T15:13:38.137Z,7.03
2018-08-31T15:16:08.432Z,4.53
2018-08-31T15:18:37.192Z,5.60
2018-08-31T15:21:06.003Z,4.57
2018-08-31T15:23:34.647Z,7.33
2018-08-31T15:26:03.094Z,4.10
2018-08-31T15:28:31.586Z,3.73
2018-08-31T15:31:00.140Z,4.23
2018-08-31T15:33:28.731Z,5.67
2018-08-31T15:35:57.354Z,4.27
2018-08-31T15:38:27.569Z,3.93
2018-08-31T15:40:56.394Z,5.63
2018-08-31T15:43:25.047Z,6.47
2018-08-31T15:45:53.655Z,7.03
2018-08-31T15:48:22.314Z,2.83
2018-08-31T15:50:57.662Z,3.10
2018-08-31T15:53:26.247Z,6.10
2018-08-31T15:55:55.136Z,5.33
2018-08-31T15:58:24.193Z,4.87
2018-08-31T16:00:52.756Z,5.80
2018-08-31T16:03:21.247Z,5.47
2018-08-31T16:05:49.781Z,2.97
2018-08-31T16:08:18.301Z,4.97
2018-08-31T16:10:46.864Z,3.37
2018-08-31T16:13:15.365Z,4.47
2018-08-31T16:15:43.902Z,3.47
2018-08-31T16:18:12.394Z,3.77
2018-08-31T16:20:40.959Z,2.80
2018-08-31T16:23:09.473Z,4.63
2018-08-31T16:25:37.928Z,3.37
2018-08-31T16:28:06.407Z,5.13
2018-08-31T16:30:35.220Z,3.43
2018-08-31T16:33:03.753Z,3.93
2018-08-31T16:35:32.234Z,3.73
2018-08-31T16:38:00.869Z,3.43
2018-08-31T16:40:29.381Z,2.67
2018-08-31T16:42:58.111Z,3.60
2018-08-31T16:45:26.671Z,6.27
2018-08-31T16:47:55.306Z,2.50
2018-08-31T16:50:23.923Z,4.40
2018-08-31T16:52:52.908Z,3.20
2018-08-31T16:55:21.844Z,3.57
2018-08-31T16:57:50.655Z,4.20
2018-08-31T17:00:19.230Z,4.37
2018-08-31T17:02:47.695Z,3.23
2018-08-31T17:05:16.188Z,4.87
2018-08-31T17:07:44.706Z,3.40
2018-08-31T17:10:13.175Z,3.90
2018-08-31T17:12:41.645Z,3.57
2018-08-31T17:15:10.409Z,5.70
2018-08-31T17:17:38.950Z,3.27
2018-08-31T17:20:07.813Z,4.83
2018-08-31T17:22:36.478Z,4.17
2018-08-31T17:25:05.920Z,4.90
2018-08-31T17:27:39.605Z,4.67
2018-08-31T17:30:13.932Z,5.07
2018-08-31T17:32:47.889Z,3.90
2018-08-31T17:35:21.681Z,4.60
2018-08-31T17:37:50.279Z,4.07
2018-08-31T17:40:18.763Z,5.07
2018-08-31T17:42:47.310Z,3.27
2018-08-31T17:45:20.125Z,3.63
2018-08-31T17:47:49.604Z,6.33
2018-08-31T17:50:18.218Z,2.80
2018-08-31T17:52:47.213Z,5.63
2018-08-31T17:55:15.894Z,4.83
2018-08-31T17:57:44.879Z,3.87
2018-08-31T18:00:13.479Z,3.07
2018-08-31T18:02:42.377Z,1.53
2018-08-31T18:05:10.855Z,9.77
2018-08-31T18:07:39.323Z,4.60
2018-08-31T18:10:07.967Z,2.47
2018-08-31T18:12:36.575Z,4.93
2018-08-31T18:15:05.374Z,4.50
2018-08-31T18:17:34.131Z,3.73
2018-08-31T18:20:02.641Z,4.50
2018-08-31T18:22:31.089Z,9.57
2018-08-31T18:24:59.821Z,3.40
2018-08-31T18:27:28.295Z,4.47
2018-08-31T18:29:56.832Z,6.27
2018-08-31T18:32:25.382Z,4.43
2018-08-31T18:34:53.841Z,5.50
2018-08-31T18:37:22.429Z,7.40
2018-08-31T18:39:51.164Z,7.73
2018-08-31T18:42:19.647Z,5.07
2018-08-31T18:44:48.481Z,7.00
2018-08-31T18:47:16.981Z,6.53
2018-08-31T18:49:46.205Z,7.00
2018-08-31T18:52:16.930Z,5.00
2018-08-31T18:54:45.577Z,7.10
2018-08-31T18:57:14.107Z,9.37
2018-08-31T18:59:42.617Z,5.80
2018-08-31T19:02:11.303Z,7.70
2018-08-31T19:04:39.819Z,5.37
2018-08-31T19:07:08.397Z,6.77
2018-08-31T19:09:36.894Z,6.40
2018-08-31T19:12:05.792Z,4.93
2018-08-31T19:14:34.350Z,4.07
2018-08-31T19:17:04.794Z,4.70
2018-08-31T19:19:33.315Z,8.83
2018-08-31T19:22:01.842Z,5.87
2018-08-31T19:24:30.585Z,3.93
2018-08-31T19:26:59.091Z,9.90
2018-08-31T19:29:28.552Z,7.57
2018-08-31T19:31:57.149Z,7.93
2018-08-31T19:34:25.678Z,6.67
2018-08-31T19:36:54.374Z,6.67
2018-08-31T19:39:23.306Z,4.60
2018-08-31T19:41:51.905Z,4.10
2018-08-31T19:44:20.567Z,7.03
2018-08-31T19:46:49.141Z,5.57
2018-08-31T19:49:17.888Z,4.87
2018-08-31T19:51:46.434Z,6.47
2018-08-31T19:54:15.158Z,9.97
2018-08-31T19:56:43.688Z,6.00
2018-08-31T19:59:12.258Z,3.90
2018-08-31T20:01:40.874Z,4.53
2018-08-31T20:04:09.603Z,7.17
2018-08-31T20:06:38.227Z,3.70
2018-08-31T20:09:08.607Z,4.87
2018-08-31T20:11:37.566Z,3.83
2018-08-31T20:14:06.565Z,4.40
2018-08-31T20:16:35.434Z,5.77
2018-08-31T20:19:04.006Z,9.37
2018-08-31T20:21:32.581Z,5.80
2018-08-31T20:24:01.247Z,7.80
2018-08-31T20:26:29.804Z,6.87
2018-08-31T20:28:58.355Z,4.67
2018-08-31T20:31:26.893Z,8.17
2018-08-31T20:33:55.390Z,2.93
2018-08-31T20:36:23.901Z,6.47
2018-08-31T20:38:52.519Z,6.67
2018-08-31T20:41:21.082Z,6.37
2018-08-31T20:43:49.566Z,5.00
2018-08-31T20:46:18.109Z,5.20
2018-08-31T20:48:46.640Z,6.43
2018-08-31T20:51:15.149Z,9.33
2018-08-31T20:53:43.783Z,4.70
2018-08-31T20:56:12.340Z,6.30
2018-08-31T20:58:41.117Z,6.77
2018-08-31T21:01:09.642Z,3.13
2018-08-31T21:03:38.251Z,7.13
2018-08-31T21:06:07.001Z,8.13
2018-08-31T21:08:35.739Z,7.80
2018-08-31T21:11:04.274Z,5.57
2018-08-31T21:13:32.880Z,6.23
2018-08-31T21:16:01.377Z,7.70
2018-08-31T21:18:29.946Z,6.40
2018-08-31T21:20:58.645Z,5.87
2018-08-31T21:23:27.195Z,7.77
2018-08-31T21:25:58.143Z,6.90
2018-08-31T21:28:26.804Z,11.10
2018-08-31T21:30:55.736Z,5.30
2018-08-31T21:33:24.225Z,6.53
2018-08-31T21:35:52.927Z,5.53
2018-08-31T21:38:21.484Z,8.43
2018-08-31T21:40:50.013Z,8.50
2018-08-31T21:43:18.770Z,7.90
2018-08-31T21:45:47.332Z,8.67
2018-08-31T21:48:15.990Z,6.17
2018-08-31T21:50:44.593Z,6.50
2018-08-31T21:53:13.086Z,7.20
2018-08-31T21:55:41.671Z,5.67
2018-08-31T21:58:10.382Z,8.73
2018-08-31T22:00:41.605Z,8.87
2018-08-31T22:03:10.998Z,11.00
2018-08-31T22:05:39.728Z,8.30
2018-08-31T22:08:08.376Z,5.83
2018-08-31T22:10:36.869Z,7.63
2018-08-31T22:13:05.516Z,9.00
2018-08-31T22:15:34.255Z,6.70
2018-08-31T22:18:02.766Z,6.80
2018-08-31T22:20:31.262Z,7.30
2018-08-31T22:22:59.816Z,4.43
2018-08-31T22:25:28.340Z,5.43
2018-08-31T22:27:56.988Z,7.17
2018-08-31T22:30:25.460Z,6.00
2018-08-31T22:32:53.929Z,5.47
2018-08-31T22:35:22.403Z,5.80
2018-08-31T22:37:50.921Z,8.43
2018-08-31T22:40:19.474Z,4.43
2018-08-31T22:42:48.093Z,5.80
2018-08-31T22:45:16.568Z,9.13
2018-08-31T22:47:45.664Z,5.03
2018-08-31T22:50:14.783Z,4.93
2018-08-31T22:52:43.334Z,6.30
2018-08-31T22:55:11.974Z,6.90
2018-08-31T22:57:40.755Z,4.40
2018-08-31T23:00:09.337Z,7.23
2018-08-31T23:02:38.198Z,7.97
2018-08-31T23:05:07.309Z,8.03
2018-08-31T23:07:41.361Z,6.10
2018-08-31T23:10:09.962Z,9.63
2018-08-31T23:12:38.570Z,9.30
2018-08-31T23:15:07.128Z,7.07
2018-08-31T23:17:35.783Z,5.50
2018-08-31T23:20:04.368Z,4.70
2018-08-31T23:22:32.982Z,4.37
2018-08-31T23:25:02.577Z,5.83
2018-08-31T23:27:31.165Z,4.97
2018-08-31T23:30:00.076Z,6.43
2018-08-31T23:32:29.016Z,6.17
2018-08-31T23:34:57.482Z,12.77
2018-08-31T23:37:26.169Z,9.83
2018-08-31T23:39:54.689Z,8.90
2018-08-31T23:42:23.502Z,5.70
2018-08-31T23:44:51.981Z,7.50
2018-08-31T23:47:20.449Z,6.80
2018-08-31T23:49:49.129Z,8.57
2018-08-31T23:52:17.827Z,5.60
2018-08-31T23:54:46.313Z,4.07
2018-08-31T23:57:14.805Z,8.73
2018-08-31T23:59:43.320Z,7.13
